Lake Zurich, IL

3:36 PM CDT on September 25, 2016 (GMT -0500)
Braemar | | Change Station

Elev 837 ft 42.18 °N, 88.10 °W | Updated 12 seconds ago

Partly Cloudy
Partly Cloudy
84.5 °F
Feels Like 90 °F
N
0.0
Wind Variable Wind from SSE
Gusts 16.0 mph

Today
High -- | Low -- °F
--% Chance of Precip.
Yesterday
High -- | Low -- °F
Precip. -- in
Pressure 29.94 in
Visibility 10.0 miles
Clouds Few 4600 ft
Heat Index 90 °F
Dew Point 71 °F
Humidity 64%
Rainfall 0.00 in
Snow Depth Not available.
6:43 AM 6:43 PM
Waning Crescent, 25% visible
METAR KPWK 251952Z 18013KT 10SM FEW046 29/19 A2995 RMK AO2 SLP136 T02940189
Pressure 29.94 in
Visibility 10.0 miles
Clouds Few 4600 ft
Heat Index 90 °F
Dew Point 71 °F
Humidity 64%
Rainfall 0.00 in
Snow Depth Not available.
6:43 AM 6:43 PM
Waning Crescent, 25% visible
METAR KPWK 251952Z 18013KT 10SM FEW046 29/19 A2995 RMK AO2 SLP136 T02940189

10-Day Weather Forecast

Almanac

Astronomy

Sep. 25, 2016 Rise Set
Actual Time
Civil Twilight
Nautical Twilight
Astronomical Twilight
Moon
Length of Visible Light
Length of Day
Tomorrow will be .
, % of the Moon is Illuminated

Today's Extremes

State Highs State Lows

Community

WunderPhotos

Upload Photos

1,941,724 photos uploaded!

WunderBlog® & News

Nearby

Air Quality

  Air Quality AQ Index Pollutant
Not available.

Snow Depth

Station Depth Elevation

Earthquake Activity

City Distance Mag. Time & Date
Minimum magnitude displayed is 2.5.

Coastal Water Temperatures

Place Temperature

Stations

Nearby Weather Stations

Station Location Temp. Windchill Dew Point Humidity Wind Precip. Elev Updated Type
                   

Watches & Warnings

There are currently no watches in effect.